Terminal Aerodrome Forecast
Issued by NWS Spokane, WA

Home | Current Version | Previous Version | Text Only | Print | Product List | Glossary On
Versions: 1 2 3 4 5 6 7 8 9 10 11 12
000
FTUS46 KOTX 252320
TAFLWS
TAF
KLWS 252320Z 2600/2624 06004KT P6SM SCT200
     FM260600 14004KT P6SM SCT200
     FM261500 08004KT P6SM BKN150
     FM262300 31009KT P6SM VCTS BKN080CB OVC150=

USA.gov is the U.S. government's official web portal to all federal, state and local government web resources and services.